Time;durP1;ratioP1;P1;durP2;ratioP2;P2;SDS_P1;SDS_P2;PMS_P1;PMS_P2;Temp;Humidity;BMP_temperature;BMP_pressure;BME280_temperature;BME280_humidity;BME280_pressure;Samples;Min_cycle;Max_cycle;Signal;HPM_P1;HPM_P2
2022/01/29 00:00:12;;;;;;;38.88;21.75;;;0.80;99.90;;;;;;5271195;28;20081;-76
2022/01/29 00:02:43;;;;;;;32.30;20.30;;;0.80;99.90;;;;;;5269836;28;20113;-76
2022/01/29 00:05:14;;;;;;;37.17;22.67;;;0.70;99.90;;;;;;5271123;28;20074;-81
2022/01/29 00:07:45;;;;;;;37.97;22.75;;;0.70;99.90;;;;;;5271094;28;20027;-76
2022/01/29 00:10:16;;;;;;;33.42;20.63;;;0.70;99.90;;;;;;5270829;28;20375;-76
2022/01/29 00:12:47;;;;;;;35.47;21.63;;;0.70;99.90;;;;;;5270971;28;20024;-77
2022/01/29 00:15:18;;;;;;;42.28;22.90;;;0.70;99.90;;;;;;5270992;28;20154;-76
2022/01/29 00:17:48;;;;;;;43.42;25.52;;;0.60;99.90;;;;;;5270820;28;20102;-76
2022/01/29 00:20:19;;;;;;;38.20;21.98;;;0.80;99.90;;;;;;5270073;28;20064;-76
2022/01/29 00:22:50;;;;;;;41.55;22.98;;;0.70;99.90;;;;;;5269525;28;20025;-77
2022/01/29 00:25:21;;;;;;;43.22;23.85;;;0.70;99.90;;;;;;5270638;28;20024;-76
2022/01/29 00:27:53;;;;;;;37.13;21.20;;;0.80;99.90;;;;;;5270690;28;20091;-76
2022/01/29 00:30:31;;;;;;;37.50;21.90;;;0.80;99.90;;;;;;5270385;28;20070;-76
2022/01/29 00:33:01;;;;;;;37.80;22.85;;;0.80;99.90;;;;;;5270593;28;20024;-76
2022/01/29 00:35:32;;;;;;;38.85;22.80;;;0.90;99.90;;;;;;5270495;28;20020;-76
2022/01/29 00:38:06;;;;;;;39.55;22.33;;;0.90;99.90;;;;;;5269205;28;20373;-76
2022/01/29 00:40:37;;;;;;;37.75;21.80;;;1.00;99.90;;;;;;5270386;28;20106;-83
2022/01/29 00:43:08;;;;;;;41.47;24.05;;;0.90;99.90;;;;;;5270400;28;20087;-77
2022/01/29 00:45:39;;;;;;;36.25;22.23;;;0.90;99.90;;;;;;5270314;28;20020;-80
2022/01/29 00:48:10;;;;;;;34.42;21.20;;;1.00;99.90;;;;;;5270211;28;20459;-78
2022/01/29 00:50:41;;;;;;;32.85;20.02;;;0.80;99.90;;;;;;5269861;28;20075;-80
2022/01/29 00:53:12;;;;;;;41.28;24.10;;;0.70;99.90;;;;;;5270098;28;20020;-76
2022/01/29 00:55:44;;;;;;;38.67;21.63;;;0.70;99.90;;;;;;5270074;28;20059;-76
2022/01/29 00:58:15;;;;;;;48.90;27.50;;;0.80;99.90;;;;;;5270022;28;20016;-76
2022/01/29 01:00:46;;;;;;;50.60;27.83;;;1.00;99.90;;;;;;5270007;28;20027;-76
2022/01/29 01:03:17;;;;;;;48.70;28.35;;;1.00;99.90;;;;;;5270006;28;20028;-76
2022/01/29 01:05:48;;;;;;;41.88;24.27;;;1.00;99.90;;;;;;5270034;28;20051;-80
2022/01/29 01:08:18;;;;;;;51.42;30.63;;;0.70;99.90;;;;;;5269952;28;20062;-76
2022/01/29 01:10:49;;;;;;;50.78;28.60;;;0.70;99.90;;;;;;5269629;28;20423;-76
2022/01/29 01:13:20;;;;;;;41.95;24.75;;;0.80;99.90;;;;;;5269842;28;20020;-76
2022/01/29 01:15:51;;;;;;;46.65;27.10;;;0.90;99.90;;;;;;5268487;28;20032;-76
2022/01/29 01:18:22;;;;;;;38.72;22.83;;;0.70;99.90;;;;;;5269604;28;20043;-76
2022/01/29 01:20:53;;;;;;;44.63;24.55;;;0.70;99.90;;;;;;5269346;28;20127;-75
2022/01/29 01:23:24;;;;;;;53.95;28.73;;;0.80;99.90;;;;;;5268144;28;20028;-76
2022/01/29 01:25:55;;;;;;;47.83;27.80;;;0.80;99.90;;;;;;5268252;28;20020;-76
2022/01/29 01:28:26;;;;;;;45.65;24.50;;;0.90;99.90;;;;;;5269539;28;20375;-76
2022/01/29 01:30:57;;;;;;;36.17;20.13;;;0.90;99.90;;;;;;5269193;28;20129;-76
2022/01/29 01:33:28;;;;;;;40.35;21.50;;;0.80;99.90;;;;;;5269448;28;20031;-76
2022/01/29 01:36:02;;;;;;;45.45;24.95;;;0.90;99.90;;;;;;5269370;28;20101;-76
2022/01/29 01:38:41;;;;;;;40.03;23.08;;;1.00;99.90;;;;;;5269383;28;20493;-76
2022/01/29 01:41:15;;;;;;;35.60;19.73;;;1.10;99.90;;;;;;5268906;28;20027;-76
2022/01/29 01:43:46;;;;;;;34.65;21.38;;;0.80;99.90;;;;;;5269205;28;20070;-80
2022/01/29 01:46:17;;;;;;;31.52;19.25;;;0.70;99.90;;;;;;5269163;28;20064;-76
2022/01/29 01:48:48;;;;;;;32.85;18.70;;;0.90;99.90;;;;;;5268982;28;20035;-76
2022/01/29 01:51:19;;;;;;;36.13;19.42;;;0.90;99.90;;;;;;5268884;28;20032;-76
2022/01/29 01:53:50;;;;;;;35.20;21.08;;;1.00;99.90;;;;;;5269109;28;20031;-76
2022/01/29 01:56:21;;;;;;;33.10;19.58;;;0.90;99.90;;;;;;5267515;28;20032;-76
2022/01/29 01:58:55;;;;;;;37.28;20.75;;;1.00;99.90;;;;;;5268954;28;20020;-76
2022/01/29 02:01:26;;;;;;;34.22;19.63;;;0.80;99.90;;;;;;5268934;28;20024;-76
2022/01/29 02:03:56;;;;;;;41.13;22.40;;;0.90;99.90;;;;;;5269102;28;20028;-76
2022/01/29 02:06:28;;;;;;;36.00;21.42;;;0.80;99.90;;;;;;5268853;28;20032;-76
2022/01/29 02:09:00;;;;;;;35.55;21.58;;;0.90;99.90;;;;;;5268802;28;20123;-76
2022/01/29 02:11:31;;;;;;;37.35;20.48;;;1.00;99.90;;;;;;5267334;28;20036;-76
2022/01/29 02:14:02;;;;;;;38.05;20.48;;;0.90;99.90;;;;;;5268878;28;20027;-76
2022/01/29 02:16:33;;;;;;;37.33;21.73;;;0.80;99.90;;;;;;5268801;28;20028;-76
2022/01/29 02:19:04;;;;;;;36.05;21.05;;;0.80;99.90;;;;;;5268392;28;20074;-76
2022/01/29 02:21:38;;;;;;;35.90;20.63;;;0.90;99.90;;;;;;5268785;28;20082;-76
2022/01/29 02:24:09;;;;;;;32.88;19.20;;;1.00;99.90;;;;;;5268766;28;20073;-76
2022/01/29 02:26:40;;;;;;;43.17;21.77;;;0.80;99.90;;;;;;5268684;28;20028;-76
2022/01/29 02:29:11;;;;;;;40.47;22.27;;;0.90;99.90;;;;;;5267354;28;20385;-76
2022/01/29 02:31:46;;;;;;;31.27;18.38;;;1.00;99.90;;;;;;5268561;28;20025;-78
2022/01/29 02:34:18;;;;;;;29.83;17.23;;;1.00;99.90;;;;;;5268567;28;20032;-77
2022/01/29 02:36:51;;;;;;;36.75;20.63;;;0.80;99.90;;;;;;5268640;28;20028;-77
2022/01/29 02:39:22;;;;;;;33.60;19.13;;;0.80;99.90;;;;;;5268527;28;20024;-76
2022/01/29 02:41:56;;;;;;;31.92;16.70;;;0.90;99.90;;;;;;5267323;28;20427;-76
2022/01/29 02:44:27;;;;;;;31.27;18.20;;;1.00;99.90;;;;;;5268552;28;20043;-76
2022/01/29 02:47:14;;;;;;;30.65;17.73;;;0.80;99.90;;;;;;5268506;28;20067;-77
2022/01/29 02:49:45;;;;;;;39.47;20.40;;;0.90;99.90;;;;;;5268139;28;20031;-76
2022/01/29 02:52:16;;;;;;;32.10;18.25;;;0.90;99.90;;;;;;5269736;28;20032;-75
2022/01/29 02:54:47;;;;;;;31.38;18.67;;;0.90;99.90;;;;;;5272539;28;20026;-76
2022/01/29 02:57:18;;;;;;;33.83;17.90;;;0.90;99.90;;;;;;5272521;28;20024;-76
2022/01/29 02:59:51;;;;;;;32.88;18.13;;;1.00;99.90;;;;;;5272324;28;20024;-76
2022/01/29 03:02:22;;;;;;;33.08;19.30;;;1.00;99.90;;;;;;5272353;28;20039;-76
2022/01/29 03:04:54;;;;;;;35.58;20.40;;;1.00;99.90;;;;;;5272345;28;20032;-76
2022/01/29 03:07:24;;;;;;;32.10;18.23;;;1.00;99.90;;;;;;5272217;28;20379;-76
2022/01/29 03:09:55;;;;;;;31.40;18.17;;;1.00;99.90;;;;;;5272115;28;20032;-76
2022/01/29 03:12:26;;;;;;;31.17;17.67;;;1.10;99.90;;;;;;5272091;28;20031;-76
2022/01/29 03:14:57;;;;;;;28.52;16.60;;;1.00;99.90;;;;;;5272150;28;20020;-76
2022/01/29 03:17:28;;;;;;;24.60;15.73;;;0.80;99.90;;;;;;5272056;28;20409;-77
2022/01/29 03:19:59;;;;;;;30.80;17.33;;;0.70;99.90;;;;;;5271501;28;20139;-77
2022/01/29 03:22:30;;;;;;;33.03;18.63;;;0.80;99.90;;;;;;5270543;28;20063;-77
2022/01/29 03:25:01;;;;;;;32.25;18.17;;;0.70;99.90;;;;;;5271856;28;20430;-77
2022/01/29 03:27:32;;;;;;;32.00;17.75;;;0.70;99.90;;;;;;5270680;28;20107;-83
2022/01/29 03:30:04;;;;;;;32.25;18.77;;;0.80;99.90;;;;;;5271704;28;20036;-77
2022/01/29 03:32:36;;;;;;;30.73;18.58;;;0.80;99.90;;;;;;5271603;28;20067;-78
2022/01/29 03:35:08;;;;;;;31.08;17.60;;;0.70;99.90;;;;;;5270478;28;20489;-77
2022/01/29 03:37:39;;;;;;;30.35;17.25;;;0.80;99.90;;;;;;5271693;28;20103;-83
2022/01/29 03:40:10;;;;;;;26.98;15.73;;;0.90;99.90;;;;;;5271758;28;20085;-77
2022/01/29 03:42:46;;;;;;;28.50;15.88;;;0.70;99.90;;;;;;5271629;28;20099;-77
2022/01/29 03:45:19;;;;;;;25.75;15.90;;;0.80;99.90;;;;;;5271663;28;20027;-77
2022/01/29 03:47:50;;;;;;;29.00;15.45;;;0.70;99.90;;;;;;5271517;28;20047;-77
2022/01/29 03:50:21;;;;;;;23.30;13.98;;;0.50;99.90;;;;;;5269820;28;20554;-77
2022/01/29 03:52:52;;;;;;;22.60;13.50;;;0.70;99.90;;;;;;5271445;28;20024;-77
2022/01/29 03:55:22;;;;;;;22.85;14.88;;;0.70;99.90;;;;;;5271356;28;20020;-77
2022/01/29 03:57:53;;;;;;;32.10;17.52;;;0.60;99.90;;;;;;5271386;28;20406;-77
2022/01/29 04:00:24;;;;;;;25.40;15.77;;;0.60;99.90;;;;;;5271307;28;20031;-77
2022/01/29 04:02:55;;;;;;;28.02;15.70;;;0.60;99.90;;;;;;5270926;28;20031;-77
2022/01/29 04:05:26;;;;;;;25.33;15.27;;;0.50;99.90;;;;;;5271183;28;20055;-77
2022/01/29 04:07:57;;;;;;;30.60;16.30;;;0.60;99.90;;;;;;5271115;28;20536;-76
2022/01/29 04:10:29;;;;;;;24.33;15.45;;;0.60;99.90;;;;;;5269633;28;20032;-77
2022/01/29 04:13:01;;;;;;;27.08;14.52;;;0.70;99.90;;;;;;5269790;28;20058;-77
2022/01/29 04:15:31;;;;;;;28.35;17.05;;;0.60;99.90;;;;;;5270967;28;20045;-78
2022/01/29 04:18:03;;;;;;;29.73;16.95;;;0.60;99.90;;;;;;5270801;28;20375;-79
2022/01/29 04:20:34;;;;;;;28.40;17.88;;;0.40;99.90;;;;;;5270443;28;20036;-77
2022/01/29 04:23:08;;;;;;;30.38;17.55;;;0.40;99.90;;;;;;5270890;28;20024;-77
2022/01/29 04:25:39;;;;;;;27.00;14.57;;;0.30;99.90;;;;;;5270750;28;20035;-77
2022/01/29 04:28:12;;;;;;;25.75;15.20;;;0.30;99.90;;;;;;5270735;28;20016;-77
2022/01/29 04:30:51;;;;;;;35.08;20.02;;;0.40;99.90;;;;;;5270371;28;20028;-77
2022/01/29 04:36:01;;;;;;;34.13;20.55;;;0.50;99.90;;;;;;5270491;28;20039;-77
2022/01/29 04:38:32;;;;;;;31.80;18.63;;;0.60;99.90;;;;;;5270464;28;20107;-81
2022/01/29 04:41:04;;;;;;;31.92;17.92;;;0.60;99.90;;;;;;5270348;28;20032;-82
2022/01/29 04:43:37;;;;;;;27.63;16.02;;;0.50;99.90;;;;;;5270389;28;20046;-77
2022/01/29 04:46:08;;;;;;;26.08;14.25;;;0.30;99.90;;;;;;5270349;28;20529;-77
2022/01/29 04:48:39;;;;;;;24.30;14.48;;;0.30;99.90;;;;;;5270035;28;20028;-77
2022/01/29 04:51:10;;;;;;;26.30;14.57;;;0.50;99.90;;;;;;5270080;28;20473;-77
2022/01/29 04:53:41;;;;;;;25.33;15.32;;;0.20;99.90;;;;;;5270232;28;20024;-76
2022/01/29 04:56:12;;;;;;;26.40;13.70;;;0.10;99.90;;;;;;5268892;28;20459;-77
2022/01/29 04:58:43;;;;;;;27.63;14.77;;;0.10;99.90;;;;;;5270067;28;20078;-77
2022/01/29 05:01:14;;;;;;;28.98;17.23;;;0.00;99.90;;;;;;5270036;28;20406;-76
2022/01/29 05:03:45;;;;;;;31.52;19.38;;;-0.10;99.90;;;;;;5270003;28;20482;-77
2022/01/29 05:06:15;;;;;;;29.05;17.42;;;0.00;99.90;;;;;;5268666;28;20544;-77
2022/01/29 05:08:46;;;;;;;31.95;17.38;;;0.20;99.90;;;;;;5269851;28;20033;-77
2022/01/29 05:11:18;;;;;;;30.20;17.45;;;0.00;99.90;;;;;;5269714;28;20111;-77
2022/01/29 05:13:49;;;;;;;31.13;17.58;;;-0.20;99.90;;;;;;5268456;28;20405;-77
2022/01/29 05:27:24;;;;;;;30.35;16.77;;;-0.10;99.90;;;;;;5269602;28;20073;-78
2022/01/29 05:29:54;;;;;;;32.33;18.67;;;-0.10;99.90;;;;;;5269437;28;20360;-78
2022/01/29 05:32:25;;;;;;;33.05;17.67;;;-0.30;99.90;;;;;;5269325;28;20024;-77
2022/01/29 05:34:56;;;;;;;32.38;16.05;;;-0.50;99.90;;;;;;5269470;28;20024;-77
2022/01/29 05:37:27;;;;;;;29.92;14.95;;;-0.30;99.90;;;;;;5269351;28;20051;-77
2022/01/29 05:39:58;;;;;;;45.65;24.77;;;-0.30;99.90;;;;;;5269256;28;20025;-78
2022/01/29 05:42:29;;;;;;;49.75;24.23;;;-0.30;99.90;;;;;;5269287;28;20035;-78
2022/01/29 05:44:59;;;;;;;37.85;20.88;;;-0.20;99.90;;;;;;5269220;28;20078;-77
2022/01/29 05:47:30;;;;;;;33.78;18.02;;;-0.30;99.90;;;;;;5269265;28;20360;-77
2022/01/29 05:50:03;;;;;;;27.52;16.77;;;-0.30;99.90;;;;;;5268811;28;20120;-77
2022/01/29 05:52:33;;;;;;;43.40;24.27;;;-0.10;99.90;;;;;;5268991;28;20166;-77
2022/01/29 05:55:05;;;;;;;39.38;21.13;;;-0.30;99.90;;;;;;5269236;28;20091;-77
2022/01/29 05:57:36;;;;;;;39.83;22.73;;;-0.30;99.90;;;;;;5267837;28;20024;-77
2022/01/29 06:00:07;;;;;;;40.15;22.02;;;-0.30;99.90;;;;;;5268959;28;20430;-77
2022/01/29 06:02:38;;;;;;;38.00;20.83;;;-0.20;99.90;;;;;;5268953;28;20103;-77
2022/01/29 06:05:09;;;;;;;34.97;19.65;;;-0.30;99.90;;;;;;5268988;28;20095;-77
2022/01/29 06:07:40;;;;;;;36.67;19.85;;;-0.20;99.90;;;;;;5268934;28;20020;-77
2022/01/29 06:10:10;;;;;;;34.92;19.42;;;-0.20;99.90;;;;;;5268749;28;20470;-77
2022/01/29 06:12:41;;;;;;;36.15;21.13;;;0.00;99.90;;;;;;5268748;28;20028;-77
2022/01/29 06:15:12;;;;;;;38.05;19.90;;;0.00;99.90;;;;;;5268899;28;20502;-78
2022/01/29 06:17:43;;;;;;;30.95;18.75;;;0.00;99.90;;;;;;5268915;28;20063;-78
2022/01/29 06:20:14;;;;;;;36.95;20.77;;;-0.10;99.90;;;;;;5268439;28;20052;-77
2022/01/29 06:22:45;;;;;;;31.60;18.58;;;-0.10;99.90;;;;;;5268808;28;20368;-78
2022/01/29 06:25:15;;;;;;;29.65;18.25;;;0.00;99.90;;;;;;5267499;28;20024;-77
2022/01/29 06:27:46;;;;;;;30.92;17.48;;;0.00;99.90;;;;;;5272900;28;20111;-78
2022/01/29 06:30:17;;;;;;;36.50;19.17;;;0.00;99.90;;;;;;5271330;28;20040;-78
2022/01/29 06:32:48;;;;;;;49.45;24.20;;;0.10;99.90;;;;;;5272896;28;20024;-77
2022/01/29 06:35:19;;;;;;;52.35;24.48;;;0.10;99.90;;;;;;5272980;28;20357;-77
2022/01/29 06:37:50;;;;;;;30.92;16.50;;;0.00;99.90;;;;;;5271594;28;20039;-78
2022/01/29 06:40:21;;;;;;;59.30;29.88;;;0.20;99.90;;;;;;5272821;28;20031;-79
2022/01/29 06:42:51;;;;;;;54.60;28.17;;;0.20;99.90;;;;;;5271597;28;20024;-78
2022/01/29 06:45:23;;;;;;;74.50;34.10;;;0.30;99.90;;;;;;5272854;28;20042;-77
2022/01/29 06:47:54;;;;;;;76.53;34.78;;;0.30;99.90;;;;;;5271256;28;20035;-82
2022/01/29 06:50:26;;;;;;;58.15;29.42;;;0.10;99.90;;;;;;5272432;28;20478;-78
2022/01/29 06:52:56;;;;;;;52.75;25.02;;;0.00;99.90;;;;;;5272643;28;20036;-78
2022/01/29 06:55:27;;;;;;;58.05;31.20;;;0.40;99.90;;;;;;5272588;28;20035;-77
2022/01/29 06:57:59;;;;;;;51.78;30.15;;;0.50;99.90;;;;;;5272619;28;20031;-77
2022/01/29 07:00:30;;;;;;;68.43;36.85;;;1.00;99.90;;;;;;5272166;28;20028;-78
2022/01/29 07:03:01;;;;;;;70.00;37.15;;;1.30;99.90;;;;;;5272384;28;20036;-78
2022/01/29 07:05:31;;;;;;;68.55;38.17;;;1.30;99.90;;;;;;5270768;28;20020;-78
2022/01/29 07:08:04;;;;;;;67.25;37.70;;;1.50;99.90;;;;;;5271043;28;20115;-78
2022/01/29 07:10:37;;;;;;;56.17;32.45;;;1.80;99.90;;;;;;5272103;28;20086;-76
2022/01/29 07:13:08;;;;;;;57.90;33.33;;;1.90;99.90;;;;;;5272291;28;20044;-78
2022/01/29 07:15:39;;;;;;;67.85;35.30;;;1.90;99.90;;;;;;5272155;28;20059;-78
2022/01/29 07:18:09;;;;;;;56.80;30.38;;;2.30;99.90;;;;;;5271925;28;20024;-76
2022/01/29 07:20:40;;;;;;;53.60;29.50;;;2.40;99.90;;;;;;5271651;28;20578;-76
2022/01/29 07:23:11;;;;;;;57.70;31.23;;;2.60;99.90;;;;;;5272054;28;20095;-76
2022/01/29 07:25:42;;;;;;;47.08;26.55;;;2.90;99.90;;;;;;5271923;28;20028;-76
2022/01/29 07:28:13;;;;;;;39.97;25.23;;;3.20;99.90;;;;;;5271813;28;20103;-75
2022/01/29 07:30:44;;;;;;;49.25;27.17;;;3.30;99.90;;;;;;5271640;28;20128;-76
2022/01/29 07:33:15;;;;;;;39.25;23.38;;;3.50;99.90;;;;;;5271818;28;20016;-77
2022/01/29 07:35:45;;;;;;;37.92;22.65;;;3.70;99.90;;;;;;5271822;28;20018;-76
2022/01/29 07:38:16;;;;;;;33.35;20.88;;;4.00;99.90;;;;;;5270969;28;20027;-76
2022/01/29 07:40:47;;;;;;;31.52;20.70;;;4.20;99.90;;;;;;5271644;28;20019;-76
2022/01/29 07:43:18;;;;;;;36.33;22.10;;;4.40;99.90;;;;;;5271770;28;20519;-76
2022/01/29 07:45:49;;;;;;;37.90;22.92;;;4.60;99.90;;;;;;5271533;28;20024;-78
2022/01/29 07:48:20;;;;;;;33.10;20.20;;;4.60;99.90;;;;;;5271388;28;20043;-76
2022/01/29 07:50:51;;;;;;;46.10;19.13;;;4.60;99.90;;;;;;5271249;28;20086;-79
2022/01/29 07:53:22;;;;;;;34.20;20.92;;;4.70;99.90;;;;;;5271427;28;20024;-77
2022/01/29 07:55:53;;;;;;;35.20;21.25;;;4.80;99.90;;;;;;5271405;28;20432;-77
2022/01/29 07:58:24;;;;;;;32.30;18.17;;;4.70;99.90;;;;;;5271280;28;20092;-76
2022/01/29 08:00:54;;;;;;;29.95;19.25;;;4.70;99.90;;;;;;5271334;28;20107;-76
2022/01/29 08:03:25;;;;;;;29.83;19.05;;;4.80;99.90;;;;;;5271294;28;20467;-77
2022/01/29 08:05:56;;;;;;;30.92;19.90;;;4.80;99.90;;;;;;5271129;28;20031;-76
2022/01/29 08:08:27;;;;;;;38.45;24.80;;;4.90;99.90;;;;;;5269877;28;20024;-77
2022/01/29 08:10:58;;;;;;;40.67;25.40;;;5.00;99.90;;;;;;5270938;28;20036;-77
2022/01/29 08:13:29;;;;;;;51.08;29.70;;;5.10;99.90;;;;;;5271003;28;20494;-76
2022/01/29 08:16:00;;;;;;;40.70;24.55;;;5.20;99.90;;;;;;5271016;28;20024;-76
2022/01/29 08:18:31;;;;;;;32.97;21.30;;;5.50;99.90;;;;;;5270673;28;20502;-77
2022/01/29 08:21:02;;;;;;;31.48;19.02;;;5.70;99.90;;;;;;5270717;28;20100;-76
2022/01/29 08:23:32;;;;;;;33.97;19.65;;;6.30;99.90;;;;;;5270800;28;20471;-77
2022/01/29 08:26:03;;;;;;;33.38;21.60;;;6.40;99.90;;;;;;5270735;28;20028;-77
2022/01/29 08:28:34;;;;;;;28.42;19.17;;;6.30;99.90;;;;;;5270695;28;20077;-78
2022/01/29 08:31:05;;;;;;;27.75;17.95;;;6.90;99.90;;;;;;5270474;28;20043;-76
2022/01/29 08:33:36;;;;;;;26.65;17.85;;;7.00;99.90;;;;;;5270562;28;20053;-77
2022/01/29 08:36:08;;;;;;;27.00;18.10;;;7.00;99.90;;;;;;5270654;28;20024;-76
2022/01/29 08:38:39;;;;;;;24.95;16.52;;;6.90;99.90;;;;;;5270556;28;20028;-76
2022/01/29 08:41:10;;;;;;;25.35;16.05;;;6.50;99.90;;;;;;5269267;28;20073;-76
2022/01/29 08:43:41;;;;;;;28.05;16.80;;;6.70;99.90;;;;;;5270392;28;20032;-80
2022/01/29 08:46:12;;;;;;;34.20;19.45;;;6.80;99.90;;;;;;5270221;28;20095;-76
2022/01/29 08:48:42;;;;;;;31.60;19.05;;;6.90;99.90;;;;;;5269644;28;20028;-77
2022/01/29 08:51:13;;;;;;;34.70;19.08;;;7.30;99.90;;;;;;5269191;28;20122;-76
2022/01/29 08:53:44;;;;;;;27.20;15.35;;;7.00;99.90;;;;;;5270102;28;20034;-77
2022/01/29 08:56:16;;;;;;;17.85;9.57;;;7.20;99.90;;;;;;5268937;28;20082;-76
2022/01/29 08:58:46;;;;;;;8.40;5.03;;;7.00;99.90;;;;;;5270070;28;20024;-77
2022/01/29 09:01:17;;;;;;;11.73;5.25;;;7.30;99.90;;;;;;5270004;28;20024;-77
2022/01/29 09:03:49;;;;;;;9.40;5.10;;;7.40;99.90;;;;;;5269955;28;20035;-77
2022/01/29 09:06:20;;;;;;;8.57;4.80;;;7.40;99.90;;;;;;5269952;28;20475;-77
2022/01/29 09:08:51;;;;;;;8.93;5.15;;;7.50;99.90;;;;;;5269895;28;20090;-77
2022/01/29 09:11:22;;;;;;;6.03;3.90;;;7.40;99.90;;;;;;5269681;28;20028;-78
2022/01/29 09:13:53;;;;;;;9.13;5.25;;;7.50;99.90;;;;;;5269790;28;20020;-77
2022/01/29 09:16:24;;;;;;;9.75;6.05;;;7.30;99.90;;;;;;5268488;28;20107;-77
2022/01/29 09:18:55;;;;;;;14.00;8.63;;;7.50;99.90;;;;;;5269376;28;20032;-77
2022/01/29 09:21:25;;;;;;;9.75;6.18;;;7.30;99.90;;;;;;5269692;28;20089;-77
2022/01/29 09:23:57;;;;;;;12.50;5.97;;;7.40;99.90;;;;;;5269689;28;20114;-77
2022/01/29 09:26:28;;;;;;;14.45;9.15;;;7.60;99.90;;;;;;5269591;28;20044;-76
2022/01/29 09:28:59;;;;;;;9.90;6.00;;;7.50;99.90;;;;;;5269490;28;20467;-76
2022/01/29 09:31:30;;;;;;;8.93;4.68;;;7.50;99.90;;;;;;5269305;28;20039;-77
2022/01/29 09:34:01;;;;;;;7.38;4.10;;;7.60;99.90;;;;;;5269462;28;20027;-77
2022/01/29 09:36:32;;;;;;;12.38;4.70;;;7.70;99.90;;;;;;5269403;28;20024;-77
2022/01/29 09:39:03;;;;;;;9.80;4.50;;;7.60;99.90;;;;;;5269362;28;20024;-77
2022/01/29 09:41:37;;;;;;;8.15;3.78;;;7.70;99.90;;;;;;5269379;28;20028;-77
2022/01/29 09:44:08;;;;;;;6.28;3.50;;;8.40;99.90;;;;;;5269293;28;20062;-77
2022/01/29 09:46:44;;;;;;;6.40;3.63;;;8.70;99.90;;;;;;5268997;28;20085;-77
2022/01/29 09:49:16;;;;;;;11.40;4.80;;;8.70;99.90;;;;;;5267754;28;20495;-77
2022/01/29 09:51:47;;;;;;;6.88;3.45;;;8.90;99.90;;;;;;5268956;28;20081;-77
2022/01/29 09:54:17;;;;;;;7.75;4.60;;;9.00;99.90;;;;;;5267978;28;20111;-77
2022/01/29 09:56:48;;;;;;;7.22;3.95;;;9.00;99.90;;;;;;5269120;28;20044;-77
2022/01/29 09:59:19;;;;;;;7.95;4.03;;;9.00;99.90;;;;;;5267746;28;20024;-78
2022/01/29 10:01:50;;;;;;;7.53;4.15;;;9.70;99.90;;;;;;5268862;28;20399;-77
2022/01/29 10:04:23;;;;;;;6.63;3.70;;;10.00;99.90;;;;;;5268997;28;20091;-77
2022/01/29 10:07:31;;;;;;;9.27;3.72;;;9.80;99.90;;;;;;5268944;28;20016;-77
2022/01/29 10:10:19;;;;;;;4.85;3.40;;;10.20;99.90;;;;;;5268780;28;20463;-77
2022/01/29 10:12:50;;;;;;;8.57;3.53;;;9.90;99.60;;;;;;5269239;28;20118;-81
2022/01/29 10:15:23;;;;;;;7.00;3.38;;;10.40;99.90;;;;;;5268879;28;20555;-77
2022/01/29 10:17:54;;;;;;;5.30;3.50;;;10.10;99.90;;;;;;5268578;28;20031;-77
2022/01/29 10:20:28;;;;;;;6.47;3.58;;;9.70;99.90;;;;;;5268540;28;20044;-77
2022/01/29 10:23:01;;;;;;;6.03;3.30;;;9.90;99.90;;;;;;5268750;28;20052;-77
2022/01/29 10:25:37;;;;;;;7.53;3.90;;;9.70;96.70;;;;;;5268720;28;20043;-77
2022/01/29 10:28:12;;;;;;;7.25;3.45;;;10.40;99.90;;;;;;5268736;28;20028;-78
2022/01/29 10:30:49;;;;;;;7.30;3.20;;;10.40;99.90;;;;;;5268498;28;20047;-77
2022/01/29 10:33:26;;;;;;;6.30;3.92;;;9.40;99.90;;;;;;5268750;28;20020;-77
2022/01/29 10:36:00;;;;;;;12.60;6.15;;;9.70;99.90;;;;;;5268761;28;20028;-78
2022/01/29 10:38:40;;;;;;;7.63;3.75;;;9.70;99.50;;;;;;5268651;28;20368;-78
2022/01/29 10:41:26;;;;;;;5.53;3.38;;;10.20;99.90;;;;;;5268695;28;20032;-78
2022/01/29 10:44:20;;;;;;;6.35;3.28;;;10.10;95.30;;;;;;5267365;28;20375;-79
2022/01/29 10:46:53;;;;;;;7.28;3.35;;;11.00;90.70;;;;;;5268678;28;20024;-79
2022/01/29 10:49:27;;;;;;;7.50;2.80;;;11.60;89.70;;;;;;5268268;28;20391;-80
2022/01/29 10:52:07;;;;;;;3.90;2.60;;;11.40;87.60;;;;;;5268426;28;20165;-79
2022/01/29 10:54:39;;;;;;;;;;;10.90;75.70;;;;;;5267695;28;20366;-79
2022/01/29 10:57:13;;;;;;;4.22;2.90;;;10.90;87.30;;;;;;5268504;28;19904;-79
2022/01/29 10:59:52;;;;;;;6.75;2.80;;;11.30;85.80;;;;;;5268435;28;20107;-78
2022/01/29 11:02:26;;;;;;;5.43;3.00;;;10.70;79.30;;;;;;5268473;28;20027;-78
2022/01/29 11:05:01;;;;;;;6.25;2.83;;;11.50;83.30;;;;;;5267143;28;20548;-79
2022/01/29 11:07:33;;;;;;;3.80;2.92;;;11.50;81.40;;;;;;5268384;28;20091;-81
2022/01/29 11:10:08;;;;;;;5.25;2.72;;;11.30;78.10;;;;;;5268224;28;20502;-78
2022/01/29 11:12:44;;;;;;;4.45;2.50;;;12.10;78.30;;;;;;5268652;28;20024;-78
2022/01/29 11:15:17;;;;;;;7.47;2.47;;;11.60;70.40;;;;;;5272261;28;20012;-78
2022/01/29 11:17:49;;;;;;;6.55;2.40;;;11.00;73.30;;;;;;5272064;28;20168;-78
2022/01/29 11:20:20;;;;;;;3.55;2.40;;;10.50;82.90;;;;;;5271845;28;20055;-78
2022/01/29 11:22:52;;;;;;;5.25;3.10;;;10.50;88.50;;;;;;5272039;28;20039;-78
2022/01/29 11:25:30;;;;;;;6.55;2.35;;;10.20;90.00;;;;;;5272016;28;20100;-78
2022/01/29 11:28:16;;;;;;;4.40;2.33;;;10.60;78.50;;;;;;5272022;28;20020;-78
2022/01/29 11:31:15;;;;;;;4.95;2.55;;;11.10;77.70;;;;;;5271676;28;20496;-78
2022/01/29 11:34:02;;;;;;;6.93;2.55;;;11.70;77.90;;;;;;5271856;28;20059;-79
2022/01/29 11:36:48;;;;;;;4.32;2.42;;;11.30;74.40;;;;;;5271630;28;20024;-80
2022/01/29 11:39:19;;;;;;;7.38;2.45;;;11.90;75.80;;;;;;5270425;28;20093;-79
2022/01/29 11:42:15;;;;;;;7.47;2.90;;;11.90;78.40;;;;;;5270529;28;20027;-80
2022/01/29 11:44:48;;;;;;;5.43;2.55;;;11.40;81.60;;;;;;5271696;28;20082;-79
2022/01/29 11:47:25;;;;;;;5.68;2.40;;;10.40;85.90;;;;;;5270269;28;20024;-79
2022/01/29 11:50:18;;;;;;;6.28;2.65;;;9.30;89.90;;;;;;5270149;28;20060;-79
2022/01/29 11:53:00;;;;;;;8.18;2.17;;;8.80;99.90;;;;;;5271393;28;20131;-79
2022/01/29 11:55:35;;;;;;;7.18;2.45;;;8.70;99.90;;;;;;5271222;28;20493;-78
2022/01/29 11:58:26;;;;;;;4.55;2.15;;;9.20;94.70;;;;;;5271283;28;20020;-79
2022/01/29 12:01:00;;;;;;;6.10;2.55;;;8.70;99.90;;;;;;5269622;28;20038;-79
2022/01/29 12:03:34;;;;;;;4.75;2.53;;;8.90;99.90;;;;;;5271245;28;20058;-79
2022/01/29 12:06:31;;;;;;;4.80;2.03;;;10.00;99.90;;;;;;5271179;28;20024;-79
2022/01/29 12:11:38;;;;;;;5.63;2.38;;;10.50;82.50;;;;;;5270911;28;20036;-79
2022/01/29 12:14:12;;;;;;;4.57;2.00;;;10.50;84.00;;;;;;5271060;28;20032;-79
2022/01/29 12:16:57;;;;;;;6.78;2.55;;;10.10;88.90;;;;;;5271034;28;20093;-78
2022/01/29 12:19:39;;;;;;;8.77;3.00;;;9.80;90.70;;;;;;5270493;28;20071;-79
2022/01/29 12:22:23;;;;;;;5.78;2.05;;;10.20;89.40;;;;;;5270983;28;20439;-79
2022/01/29 12:24:59;;;;;;;5.72;2.00;;;10.00;89.60;;;;;;5270680;28;20535;-79
2022/01/29 12:27:48;;;;;;;6.13;2.17;;;8.70;99.90;;;;;;5270760;28;20067;-79
2022/01/29 12:30:32;;;;;;;4.78;2.70;;;8.30;99.90;;;;;;5270715;28;20427;-79
2022/01/29 12:33:07;;;;;;;6.97;1.98;;;9.20;99.90;;;;;;5270819;28;20036;-79
2022/01/29 12:35:41;;;;;;;4.13;2.20;;;9.70;99.90;;;;;;5270530;28;20460;-79
2022/01/29 12:38:40;;;;;;;5.38;2.63;;;10.20;99.90;;;;;;5270475;28;20032;-79
2022/01/29 12:41:13;;;;;;;5.85;2.40;;;10.10;99.60;;;;;;5269275;28;20471;-79
2022/01/29 12:44:02;;;;;;;4.80;2.70;;;10.80;99.90;;;;;;5270513;28;20032;-79
2022/01/29 12:46:33;;;;;;;4.72;2.42;;;10.10;99.90;;;;;;5270480;28;20016;-79
2022/01/29 12:49:07;;;;;;;7.75;3.00;;;10.50;99.90;;;;;;5270088;28;20082;-79
2022/01/29 12:51:58;;;;;;;6.93;2.40;;;10.30;99.90;;;;;;5270039;28;20032;-78
2022/01/29 12:54:30;;;;;;;8.40;2.47;;;9.70;99.90;;;;;;5270324;28;20370;-79
2022/01/29 12:57:01;;;;;;;5.97;2.42;;;10.20;99.90;;;;;;5270242;28;20016;-78
2022/01/29 12:59:35;;;;;;;5.43;2.53;;;9.50;99.90;;;;;;5268940;28;20046;-79
2022/01/29 13:02:06;;;;;;;4.97;2.30;;;9.70;99.90;;;;;;5270043;28;20382;-79
2022/01/29 13:04:38;;;;;;;6.25;2.75;;;9.20;99.90;;;;;;5269990;28;20032;-79
2022/01/29 13:07:09;;;;;;;3.38;1.90;;;9.70;99.90;;;;;;5269909;28;20103;-78
2022/01/29 13:09:40;;;;;;;10.00;3.20;;;9.60;99.90;;;;;;5269730;28;20133;-78
2022/01/29 13:12:13;;;;;;;6.97;2.97;;;9.30;99.90;;;;;;5269682;28;20038;-78
2022/01/29 13:14:48;;;;;;;8.07;2.65;;;9.20;99.90;;;;;;5269914;28;20061;-78
2022/01/29 13:17:22;;;;;;;6.75;3.10;;;9.50;99.90;;;;;;5269775;28;20478;-79
2022/01/29 13:19:53;;;;;;;9.13;2.78;;;9.60;99.90;;;;;;5269242;28;20056;-78
2022/01/29 13:22:27;;;;;;;6.78;3.20;;;9.70;99.90;;;;;;5269680;28;20425;-78
2022/01/29 13:25:04;;;;;;;6.13;3.20;;;8.80;99.90;;;;;;5269670;28;20475;-78